createdAt,value
2018-11-23T00:00:14.930Z,91.50
2018-11-23T00:02:44.454Z,91.50
2018-11-23T00:05:12.895Z,91.60
2018-11-23T00:07:41.898Z,91.70
2018-11-23T00:10:12.061Z,91.60
2018-11-23T00:12:40.427Z,91.60
2018-11-23T00:15:11.116Z,91.50
2018-11-23T00:17:39.707Z,91.50
2018-11-23T00:20:09.950Z,91.40
2018-11-23T00:22:38.567Z,91.30
2018-11-23T00:25:08.163Z,91.30
2018-11-23T00:27:36.767Z,91.20
2018-11-23T00:30:06.595Z,91.20
2018-11-23T00:32:35.000Z,91.30
2018-11-23T00:35:03.401Z,91.30
2018-11-23T00:37:31.766Z,91.30
2018-11-23T00:40:00.214Z,91.40
2018-11-23T00:42:28.531Z,91.60
2018-11-23T00:44:56.870Z,91.70
2018-11-23T00:47:25.246Z,91.70
2018-11-23T00:49:53.604Z,91.70
2018-11-23T00:52:21.956Z,91.80
2018-11-23T00:54:50.282Z,91.90
2018-11-23T00:57:18.858Z,91.80
2018-11-23T00:59:47.271Z,91.80
2018-11-23T01:02:15.678Z,91.80
2018-11-23T01:04:44.027Z,91.90
2018-11-23T01:07:12.381Z,91.90
2018-11-23T01:09:40.719Z,91.90
2018-11-23T01:12:09.045Z,91.90
2018-11-23T01:14:37.374Z,91.90
2018-11-23T01:17:05.757Z,91.80
2018-11-23T01:19:34.123Z,91.90
2018-11-23T01:22:02.463Z,91.90
2018-11-23T01:24:30.815Z,92.10
2018-11-23T01:26:59.199Z,92.30
2018-11-23T01:29:27.564Z,92.40
2018-11-23T01:31:55.923Z,92.40
2018-11-23T01:34:24.281Z,92.40
2018-11-23T01:36:52.627Z,92.40
2018-11-23T01:39:20.963Z,92.30
2018-11-23T01:41:50.125Z,92.20
2018-11-23T01:44:18.496Z,92.10
2018-11-23T01:46:46.907Z,92.10
2018-11-23T01:49:15.247Z,92.10
2018-11-23T01:51:43.600Z,92.00
2018-11-23T01:54:11.947Z,91.80
2018-11-23T01:56:40.265Z,91.60
2018-11-23T01:59:08.663Z,91.60
2018-11-23T02:01:37.041Z,91.70
2018-11-23T02:04:05.488Z,91.70
2018-11-23T02:06:33.854Z,91.80
2018-11-23T02:09:02.365Z,92.10
2018-11-23T02:11:30.768Z,92.30
2018-11-23T02:13:59.089Z,92.50
2018-11-23T02:16:27.463Z,92.50
2018-11-23T02:18:55.834Z,92.70
2018-11-23T02:21:24.214Z,92.90
2018-11-23T02:23:52.587Z,92.90
2018-11-23T02:26:20.968Z,93.00
2018-11-23T02:28:49.353Z,93.10
2018-11-23T02:31:22.149Z,93.30
2018-11-23T02:33:51.074Z,93.50
2018-11-23T02:36:19.460Z,93.60
2018-11-23T02:38:47.812Z,93.70
2018-11-23T02:41:16.239Z,93.70
2018-11-23T02:43:44.623Z,93.70
2018-11-23T02:46:12.952Z,93.50
2018-11-23T02:48:41.270Z,93.20
2018-11-23T02:51:09.594Z,93.00
2018-11-23T02:53:37.907Z,92.80
2018-11-23T02:56:06.280Z,92.70
2018-11-23T02:58:34.627Z,92.80
2018-11-23T03:01:02.998Z,92.80
2018-11-23T03:03:31.343Z,92.90
2018-11-23T03:05:59.691Z,93.00
2018-11-23T03:08:28.020Z,93.10
2018-11-23T03:10:56.370Z,93.20
2018-11-23T03:13:24.708Z,93.20
2018-11-23T03:15:53.064Z,93.30
2018-11-23T03:18:21.387Z,93.40
2018-11-23T03:20:49.811Z,93.50
2018-11-23T03:23:20.098Z,93.70
2018-11-23T03:25:49.163Z,93.80
2018-11-23T03:28:17.511Z,93.80
2018-11-23T03:30:45.895Z,93.80
2018-11-23T03:33:14.306Z,93.80
2018-11-23T03:35:42.639Z,93.80
2018-11-23T03:38:11.014Z,93.80
2018-11-23T03:40:39.351Z,93.80
2018-11-23T03:43:07.756Z,94.00
2018-11-23T03:45:36.107Z,94.10
2018-11-23T03:48:04.487Z,94.40
2018-11-23T03:50:32.847Z,94.50
2018-11-23T03:53:01.184Z,94.60
2018-11-23T03:55:29.549Z,94.50
2018-11-23T03:57:57.853Z,94.50
2018-11-23T04:00:26.210Z,94.40
2018-11-23T04:02:55.348Z,94.30
2018-11-23T04:05:25.367Z,94.30
2018-11-23T04:07:53.724Z,94.30
2018-11-23T04:10:22.065Z,94.30
2018-11-23T04:12:50.399Z,94.10
2018-11-23T04:15:18.817Z,93.90
2018-11-23T04:17:47.139Z,93.50
2018-11-23T04:20:16.644Z,93.00
2018-11-23T04:22:45.003Z,92.70
2018-11-23T04:25:13.723Z,92.30
2018-11-23T04:27:42.693Z,91.80
2018-11-23T04:30:13.038Z,91.50
2018-11-23T04:32:41.371Z,91.20
2018-11-23T04:35:11.607Z,91.00
2018-11-23T04:37:40.065Z,90.80
2018-11-23T04:40:09.792Z,90.70
2018-11-23T04:42:38.317Z,90.90
2018-11-23T04:45:06.906Z,91.10
2018-11-23T04:47:35.419Z,91.40
2018-11-23T04:50:03.901Z,91.60
2018-11-23T04:52:32.227Z,91.80
2018-11-23T04:55:00.575Z,92.00
2018-11-23T04:57:28.929Z,92.10
2018-11-23T04:59:57.812Z,92.10
2018-11-23T05:02:26.295Z,92.10
2018-11-23T05:04:54.705Z,92.10
2018-11-23T05:07:23.070Z,92.00
2018-11-23T05:09:51.520Z,91.90
2018-11-23T05:12:20.123Z,91.50
2018-11-23T05:14:48.492Z,91.30
2018-11-23T05:17:16.858Z,91.00
2018-11-23T05:19:45.270Z,90.90
2018-11-23T05:22:13.623Z,90.60
2018-11-23T05:24:41.979Z,90.50
2018-11-23T05:27:10.299Z,90.50
2018-11-23T05:29:38.628Z,90.50
2018-11-23T05:32:06.952Z,90.60
2018-11-23T05:34:35.403Z,90.60
2018-11-23T05:37:03.826Z,90.70
2018-11-23T05:39:32.177Z,90.80
2018-11-23T05:42:00.536Z,90.90
2018-11-23T05:44:28.912Z,91.00
2018-11-23T05:46:57.228Z,91.10
2018-11-23T05:49:25.536Z,91.20
2018-11-23T05:51:53.864Z,91.20
2018-11-23T05:54:22.199Z,91.00
2018-11-23T05:56:50.554Z,91.00
2018-11-23T05:59:18.899Z,90.90
2018-11-23T06:01:47.232Z,90.80
2018-11-23T06:04:15.562Z,90.80
2018-11-23T06:06:43.906Z,90.80
2018-11-23T06:09:12.222Z,90.90
2018-11-23T06:11:40.533Z,91.00
2018-11-23T06:14:08.910Z,91.10
2018-11-23T06:16:37.246Z,91.20
2018-11-23T06:19:05.634Z,91.20
2018-11-23T06:21:34.059Z,91.30
2018-11-23T06:24:02.383Z,91.40
2018-11-23T06:26:31.229Z,91.50
2018-11-23T06:28:59.553Z,91.50
2018-11-23T06:31:27.950Z,91.60
2018-11-23T06:33:56.382Z,91.70
2018-11-23T06:36:24.713Z,91.80
2018-11-23T06:38:53.030Z,92.00
2018-11-23T06:41:21.501Z,92.10
2018-11-23T06:43:49.935Z,92.20
2018-11-23T06:46:18.280Z,92.10
2018-11-23T06:48:46.679Z,91.90
2018-11-23T06:51:15.024Z,91.60
2018-11-23T06:53:43.365Z,91.30
2018-11-23T06:56:11.679Z,90.90
2018-11-23T06:58:40.035Z,90.60
2018-11-23T07:01:08.403Z,90.40
2018-11-23T07:03:36.761Z,90.30
2018-11-23T07:06:05.135Z,90.30
2018-11-23T07:08:33.445Z,90.10
2018-11-23T07:11:03.077Z,89.70
2018-11-23T07:13:32.071Z,89.10
2018-11-23T07:16:00.482Z,87.50
2018-11-23T07:18:28.936Z,83.10
2018-11-23T07:20:57.421Z,82.50
2018-11-23T07:23:25.791Z,82.40
2018-11-23T07:25:54.235Z,82.10
2018-11-23T07:28:22.575Z,82.50
2018-11-23T07:30:50.991Z,82.70
2018-11-23T07:33:19.371Z,83.20
2018-11-23T07:35:47.790Z,83.30
2018-11-23T07:38:16.110Z,83.30
2018-11-23T07:40:55.779Z,83.60
2018-11-23T07:43:24.151Z,83.70
2018-11-23T07:45:52.541Z,84.70
2018-11-23T07:48:20.910Z,85.00
2018-11-23T07:50:49.591Z,85.60
2018-11-23T07:53:17.956Z,86.10
2018-11-23T07:55:46.299Z,86.50
2018-11-23T07:58:14.678Z,87.00
2018-11-23T08:00:43.027Z,87.00
2018-11-23T08:03:11.789Z,86.90
2018-11-23T08:05:40.138Z,86.90
2018-11-23T08:08:08.499Z,86.80
2018-11-23T08:10:38.106Z,86.80
2018-11-23T08:13:06.720Z,87.00
2018-11-23T08:15:35.616Z,87.00
2018-11-23T08:18:04.035Z,87.30
2018-11-23T08:20:32.403Z,87.40
2018-11-23T08:23:00.803Z,87.40
2018-11-23T08:25:29.159Z,87.20
2018-11-23T08:27:57.534Z,86.90
2018-11-23T08:30:28.074Z,86.70
2018-11-23T08:32:56.753Z,86.40
2018-11-23T08:35:25.167Z,86.30
2018-11-23T08:37:53.499Z,86.40
2018-11-23T08:40:23.266Z,86.50
2018-11-23T08:42:52.238Z,86.50
2018-11-23T08:45:21.979Z,86.40
2018-11-23T08:47:50.336Z,86.00
2018-11-23T08:50:27.826Z,85.70
2018-11-23T08:52:56.156Z,85.30
2018-11-23T08:55:24.706Z,84.80
2018-11-23T08:57:53.222Z,84.20
2018-11-23T09:00:23.582Z,83.40
2018-11-23T09:02:53.453Z,82.50
2018-11-23T09:05:21.955Z,82.00
2018-11-23T09:07:51.563Z,81.60
2018-11-23T09:10:23.341Z,81.10
2018-11-23T09:12:53.474Z,80.70
2018-11-23T09:15:21.928Z,80.10
2018-11-23T09:17:50.258Z,79.60
2018-11-23T09:20:18.905Z,79.20
2018-11-23T09:22:47.519Z,78.90
2018-11-23T09:25:17.322Z,78.50
2018-11-23T09:27:45.842Z,78.50
2018-11-23T09:30:19.630Z,78.40
2018-11-23T09:32:48.759Z,78.50
2018-11-23T09:35:17.158Z,78.70
2018-11-23T09:37:46.547Z,78.70
2018-11-23T09:40:16.444Z,79.10
2018-11-23T09:42:44.908Z,79.50
2018-11-23T09:45:15.698Z,79.50
2018-11-23T09:47:44.989Z,79.40
2018-11-23T09:50:14.696Z,79.20
2018-11-23T09:52:43.495Z,78.60
2018-11-23T09:55:11.963Z,77.70
2018-11-23T09:57:40.483Z,77.70
2018-11-23T10:00:11.670Z,77.40
2018-11-23T10:02:40.251Z,76.90
2018-11-23T10:05:09.460Z,76.60
2018-11-23T10:07:37.865Z,76.30
2018-11-23T10:10:07.387Z,75.80
2018-11-23T10:12:35.800Z,75.40
2018-11-23T10:15:04.520Z,75.10
2018-11-23T10:17:32.886Z,75.00
2018-11-23T10:20:01.292Z,74.90
2018-11-23T10:22:29.699Z,75.00
2018-11-23T10:24:58.033Z,75.00
2018-11-23T10:27:26.422Z,74.90
2018-11-23T10:29:55.360Z,75.00
2018-11-23T10:32:23.240Z,75.00
2018-11-23T10:34:51.663Z,75.20
2018-11-23T10:37:20.053Z,75.20
2018-11-23T10:39:48.387Z,75.30
2018-11-23T10:42:16.731Z,75.50
2018-11-23T10:44:45.181Z,75.60
2018-11-23T10:47:13.591Z,75.60
2018-11-23T10:49:42.093Z,75.60
2018-11-23T10:52:10.794Z,75.50
2018-11-23T10:54:39.168Z,75.40
2018-11-23T10:57:07.531Z,75.10
2018-11-23T10:59:35.902Z,74.90
2018-11-23T11:02:08.859Z,74.70
2018-11-23T11:04:42.721Z,74.60
2018-11-23T11:07:11.133Z,74.80
2018-11-23T11:09:39.535Z,75.80
2018-11-23T11:12:07.961Z,76.10
2018-11-23T11:14:36.331Z,76.50
2018-11-23T11:17:04.838Z,77.00
2018-11-23T11:19:33.234Z,77.30
2018-11-23T11:22:01.587Z,77.60
2018-11-23T11:24:30.063Z,77.70
2018-11-23T11:26:58.876Z,77.70
2018-11-23T11:29:27.276Z,77.90
2018-11-23T11:31:55.723Z,78.10
2018-11-23T11:34:24.378Z,78.30
2018-11-23T11:36:52.747Z,78.40
2018-11-23T11:39:21.107Z,78.30
2018-11-23T11:41:49.471Z,78.40
2018-11-23T11:44:17.852Z,78.50
2018-11-23T11:46:46.175Z,78.50
2018-11-23T11:49:14.591Z,78.50
2018-11-23T11:51:42.935Z,78.60
2018-11-23T11:54:11.295Z,78.80
2018-11-23T11:56:39.678Z,78.90
2018-11-23T11:59:08.091Z,79.20
2018-11-23T12:01:36.602Z,79.20
2018-11-23T12:04:05.242Z,79.30
2018-11-23T12:06:33.562Z,79.40
2018-11-23T12:09:01.932Z,79.40
2018-11-23T12:11:30.483Z,79.40
2018-11-23T12:13:58.832Z,79.20
2018-11-23T12:16:27.251Z,79.10
2018-11-23T12:18:55.626Z,78.80
2018-11-23T12:21:24.026Z,78.50
2018-11-23T12:23:52.379Z,78.10
2018-11-23T12:26:20.793Z,77.80
2018-11-23T12:28:49.177Z,77.60
2018-11-23T12:31:17.546Z,77.50
2018-11-23T12:33:46.096Z,77.40
2018-11-23T12:36:14.492Z,77.40
2018-11-23T12:38:43.061Z,77.40
2018-11-23T12:41:11.443Z,77.40
2018-11-23T12:43:39.802Z,77.30
2018-11-23T12:46:08.160Z,77.20
2018-11-23T12:48:36.535Z,77.10
2018-11-23T12:51:06.126Z,76.90
2018-11-23T12:53:36.940Z,76.90
2018-11-23T12:56:06.218Z,76.90
2018-11-23T12:58:34.597Z,77.00
2018-11-23T13:01:03.057Z,77.10
2018-11-23T13:03:31.491Z,77.10
2018-11-23T13:05:59.915Z,77.30
2018-11-23T13:08:28.235Z,77.20
2018-11-23T13:10:56.655Z,77.20
2018-11-23T13:13:25.022Z,77.20
2018-11-23T13:15:53.417Z,77.30
2018-11-23T13:18:21.763Z,77.40
2018-11-23T13:20:50.378Z,77.20
2018-11-23T13:23:18.727Z,76.80
2018-11-23T13:25:47.149Z,76.50
2018-11-23T13:28:15.565Z,76.10
2018-11-23T13:30:43.934Z,75.70
2018-11-23T13:33:12.371Z,75.50
2018-11-23T13:35:40.732Z,75.10
2018-11-23T13:38:09.119Z,75.00
2018-11-23T13:40:37.499Z,74.60
2018-11-23T13:43:05.990Z,74.30
2018-11-23T13:45:34.563Z,74.20
2018-11-23T13:48:03.074Z,74.00
2018-11-23T13:50:31.469Z,74.00
2018-11-23T13:53:01.140Z,73.70
2018-11-23T13:55:29.714Z,73.80
2018-11-23T13:57:58.077Z,73.90
2018-11-23T14:00:27.752Z,73.70
2018-11-23T14:02:56.200Z,73.50
2018-11-23T14:05:26.959Z,73.20
2018-11-23T14:07:56.881Z,73.20
2018-11-23T14:10:26.127Z,72.90
2018-11-23T14:12:54.511Z,72.40
2018-11-23T14:15:24.217Z,72.10
2018-11-23T14:17:53.635Z,72.00
2018-11-23T14:20:22.911Z,72.00
2018-11-23T14:22:51.380Z,72.00
2018-11-23T14:25:21.194Z,72.10
2018-11-23T14:27:50.135Z,72.30
2018-11-23T14:30:22.245Z,72.60
2018-11-23T14:32:50.939Z,72.80
2018-11-23T14:35:21.872Z,72.90
2018-11-23T14:37:51.107Z,73.20
2018-11-23T14:40:19.587Z,73.40
2018-11-23T14:42:49.023Z,73.80
2018-11-23T14:45:21.451Z,74.10
2018-11-23T14:47:50.454Z,74.50
2018-11-23T14:50:22.244Z,74.90
2018-11-23T14:52:51.574Z,75.30
2018-11-23T14:55:26.720Z,75.70
2018-11-23T14:57:55.746Z,76.00
2018-11-23T15:00:33.951Z,76.20
2018-11-23T15:03:04.553Z,76.30
2018-11-23T15:05:34.285Z,76.40
2018-11-23T15:08:02.678Z,76.40
2018-11-23T15:10:32.869Z,76.30
2018-11-23T15:13:02.203Z,76.20
2018-11-23T15:15:35.104Z,76.20
2018-11-23T15:18:03.837Z,76.30
2018-11-23T15:20:41.440Z,76.30
2018-11-23T15:23:15.717Z,76.50
2018-11-23T15:25:47.822Z,76.50
2018-11-23T15:28:18.040Z,76.70
2018-11-23T15:31:00.439Z,76.80
2018-11-23T15:33:30.009Z,76.90
2018-11-23T15:36:01.316Z,77.00
2018-11-23T15:38:33.494Z,77.20
2018-11-23T15:41:03.051Z,77.50
2018-11-23T15:43:34.302Z,77.70
2018-11-23T15:46:02.651Z,78.00
2018-11-23T15:48:31.407Z,78.50
2018-11-23T15:51:08.508Z,78.80
2018-11-23T15:53:38.237Z,79.20
2018-11-23T15:56:08.230Z,79.40
2018-11-23T15:58:36.999Z,79.70
2018-11-23T16:01:05.974Z,79.90
2018-11-23T16:03:35.961Z,80.00
2018-11-23T16:06:04.922Z,80.10
2018-11-23T16:08:35.894Z,80.30
2018-11-23T16:11:04.546Z,80.60
2018-11-23T16:13:32.920Z,80.70
2018-11-23T16:16:01.333Z,80.70
2018-11-23T16:18:29.698Z,80.50
2018-11-23T16:21:00.099Z,80.30
2018-11-23T16:23:28.790Z,80.00
2018-11-23T16:26:02.011Z,79.60
2018-11-23T16:28:31.144Z,79.40
2018-11-23T16:30:59.563Z,79.40
2018-11-23T16:33:27.928Z,79.30
2018-11-23T16:35:56.312Z,79.10
2018-11-23T16:38:24.930Z,78.90
2018-11-23T16:40:54.830Z,78.60
2018-11-23T16:43:23.339Z,78.10
2018-11-23T16:45:51.801Z,77.60
2018-11-23T16:48:20.772Z,77.30
2018-11-23T16:50:49.161Z,77.10
2018-11-23T16:53:17.555Z,77.00
2018-11-23T16:55:45.884Z,77.00
2018-11-23T16:58:15.382Z,77.10
2018-11-23T17:00:45.304Z,77.10
2018-11-23T17:03:15.275Z,77.20
2018-11-23T17:05:45.974Z,77.30
2018-11-23T17:08:14.419Z,77.30
2018-11-23T17:10:42.819Z,77.40
2018-11-23T17:13:11.327Z,77.40
2018-11-23T17:15:39.821Z,77.50
2018-11-23T17:18:09.128Z,77.50
2018-11-23T17:20:38.211Z,77.60
2018-11-23T17:23:07.655Z,77.50
2018-11-23T17:25:36.020Z,77.50
2018-11-23T17:28:06.023Z,77.50
2018-11-23T17:30:35.084Z,77.60
2018-11-23T17:33:03.588Z,77.40
2018-11-23T17:35:31.935Z,77.30
2018-11-23T17:38:00.270Z,77.30
2018-11-23T17:40:30.234Z,77.30
2018-11-23T17:42:58.598Z,77.10
2018-11-23T17:45:28.986Z,76.90
2018-11-23T17:47:57.404Z,76.80
2018-11-23T17:50:27.122Z,76.70
2018-11-23T17:52:55.676Z,76.60
2018-11-23T17:55:24.018Z,76.30
2018-11-23T17:57:53.208Z,76.20
2018-11-23T18:00:23.859Z,76.20
2018-11-23T18:02:52.855Z,76.30
2018-11-23T18:05:22.071Z,76.40
2018-11-23T18:07:50.673Z,76.50
2018-11-23T18:10:20.347Z,76.80
2018-11-23T18:12:49.067Z,77.10
2018-11-23T18:15:19.446Z,77.30
2018-11-23T18:17:48.591Z,77.50
2018-11-23T18:20:18.123Z,77.60
2018-11-23T18:22:47.048Z,77.50
2018-11-23T18:25:20.846Z,77.30
2018-11-23T18:27:49.528Z,77.10
2018-11-23T18:30:17.914Z,76.40
2018-11-23T18:32:46.243Z,75.90
2018-11-23T18:35:14.659Z,75.50
2018-11-23T18:37:43.055Z,75.30
2018-11-23T18:40:12.503Z,75.10
2018-11-23T18:42:40.856Z,74.90
2018-11-23T18:45:13.771Z,74.90
2018-11-23T18:47:42.982Z,74.90
2018-11-23T18:50:13.400Z,74.70
2018-11-23T18:52:41.963Z,74.50
2018-11-23T18:55:17.554Z,74.10
2018-11-23T18:57:39.767Z,73.70
2018-11-23T19:00:13.471Z,73.40
2018-11-23T19:02:42.698Z,73.10
2018-11-23T19:05:15.275Z,72.90
2018-11-23T19:07:43.667Z,72.80
2018-11-23T19:10:12.998Z,72.80
2018-11-23T19:12:41.422Z,72.80
2018-11-23T19:15:13.028Z,72.90
2018-11-23T19:17:41.445Z,73.00
2018-11-23T19:20:12.051Z,73.20
2018-11-23T19:22:41.042Z,73.40
2018-11-23T19:25:09.495Z,73.60
2018-11-23T19:27:37.890Z,73.80
2018-11-23T19:30:08.968Z,74.10
2018-11-23T19:32:37.364Z,74.10
2018-11-23T19:35:06.390Z,74.30
2018-11-23T19:37:34.781Z,74.40
2018-11-23T19:40:03.616Z,74.50
2018-11-23T19:42:32.035Z,74.60
2018-11-23T19:45:00.380Z,74.60
2018-11-23T19:47:28.726Z,74.70
2018-11-23T19:49:57.207Z,74.50
2018-11-23T19:52:25.623Z,74.40
2018-11-23T19:54:54.053Z,74.30
2018-11-23T19:57:22.501Z,74.10
2018-11-23T19:59:50.893Z,73.90
2018-11-23T20:02:19.934Z,73.90
2018-11-23T20:04:47.843Z,74.90
2018-11-23T20:07:16.319Z,75.70
2018-11-23T20:09:44.705Z,77.30
2018-11-23T20:12:13.123Z,77.80
2018-11-23T20:14:41.464Z,78.50
2018-11-23T20:17:09.843Z,78.80
2018-11-23T20:19:38.276Z,79.20
2018-11-23T20:22:06.691Z,79.30
2018-11-23T20:24:35.224Z,79.70
2018-11-23T20:27:03.620Z,79.70
2018-11-23T20:29:32.012Z,79.70
2018-11-23T20:32:00.835Z,79.80
2018-11-23T20:34:29.512Z,79.70
2018-11-23T20:36:57.859Z,79.60
2018-11-23T20:39:26.262Z,79.40
2018-11-23T20:41:56.279Z,79.10
2018-11-23T20:44:24.609Z,78.80
2018-11-23T20:46:53.041Z,78.40
2018-11-23T20:49:21.424Z,78.10
2018-11-23T20:51:49.894Z,78.10
2018-11-23T20:54:18.578Z,77.90
2018-11-23T20:56:46.944Z,77.90
2018-11-23T20:59:15.375Z,77.70
2018-11-23T21:01:43.809Z,77.70
2018-11-23T21:04:12.266Z,77.80
2018-11-23T21:06:40.638Z,77.90
2018-11-23T21:09:09.748Z,77.80
2018-11-23T21:11:38.183Z,77.90
2018-11-23T21:14:06.554Z,78.60
2018-11-23T21:16:35.865Z,79.00
2018-11-23T21:19:09.058Z,80.40
2018-11-23T21:21:38.098Z,81.30
2018-11-23T21:24:06.706Z,81.60
2018-11-23T21:26:35.986Z,81.90
2018-11-23T21:29:05.238Z,82.30
2018-11-23T21:31:33.754Z,82.30
2018-11-23T21:34:02.341Z,82.50
2018-11-23T21:36:30.843Z,82.50
2018-11-23T21:38:59.363Z,82.60
2018-11-23T21:41:29.705Z,82.70
2018-11-23T21:43:56.303Z,82.90
2018-11-23T21:46:24.818Z,83.10
2018-11-23T21:48:53.279Z,83.30
2018-11-23T21:51:21.846Z,83.30
2018-11-23T21:53:50.310Z,83.40
2018-11-23T21:56:20.026Z,83.50
2018-11-23T21:58:48.582Z,83.70
2018-11-23T22:01:16.974Z,83.80
2018-11-23T22:03:48.459Z,83.90
2018-11-23T22:06:16.968Z,84.00
2018-11-23T22:08:45.408Z,84.20
2018-11-23T22:11:14.079Z,84.20
2018-11-23T22:13:42.941Z,84.20
2018-11-23T22:16:11.437Z,84.20
2018-11-23T22:18:40.068Z,84.40
2018-11-23T22:21:08.699Z,84.60
2018-11-23T22:23:37.076Z,84.70
2018-11-23T22:26:05.671Z,84.90
2018-11-23T22:28:34.103Z,85.00
2018-11-23T22:31:02.549Z,85.20
2018-11-23T22:33:30.996Z,85.30
2018-11-23T22:35:59.513Z,85.30
2018-11-23T22:38:28.667Z,85.40
2018-11-23T22:40:57.146Z,85.40
2018-11-23T22:43:25.571Z,85.40
2018-11-23T22:45:53.935Z,85.30
2018-11-23T22:48:22.256Z,85.20
2018-11-23T22:50:50.587Z,85.10
2018-11-23T22:53:19.028Z,85.00
2018-11-23T22:55:47.384Z,85.00
2018-11-23T22:58:15.740Z,85.20
2018-11-23T23:00:44.484Z,85.30
2018-11-23T23:03:13.404Z,85.50
2018-11-23T23:05:42.615Z,85.70
2018-11-23T23:08:10.324Z,86.00
2018-11-23T23:10:38.727Z,86.20
2018-11-23T23:13:07.075Z,86.10
2018-11-23T23:15:35.453Z,86.00
2018-11-23T23:18:03.898Z,85.90
2018-11-23T23:20:32.251Z,85.80
2018-11-23T23:23:00.615Z,85.80
2018-11-23T23:25:28.975Z,85.80
2018-11-23T23:27:57.431Z,86.10
2018-11-23T23:30:25.768Z,86.40
2018-11-23T23:32:54.189Z,86.70
2018-11-23T23:35:22.676Z,86.90
2018-11-23T23:37:51.065Z,87.10
2018-11-23T23:40:19.637Z,87.30
2018-11-23T23:42:48.667Z,87.50
2018-11-23T23:45:17.796Z,87.70
2018-11-23T23:47:46.249Z,87.60
2018-11-23T23:50:16.580Z,87.70
2018-11-23T23:52:44.919Z,87.70
2018-11-23T23:55:13.393Z,87.60
2018-11-23T23:57:44.227Z,87.40
